sensor_id;sensor_type;location;lat;lon;timestamp;pressure;altitude;pressure_sealevel;temperature;humidity
68141;BME280;54941;52.220;104.306;2023-08-21T00:00:30;96060.63;;;11.87;84.11
68141;BME280;54941;52.220;104.306;2023-08-21T00:02:56;96061.38;;;12.18;83.33
68141;BME280;54941;52.220;104.306;2023-08-21T00:05:23;96068.00;;;11.76;84.16
68141;BME280;54941;52.220;104.306;2023-08-21T00:07:49;96065.59;;;11.68;85.75
68141;BME280;54941;52.220;104.306;2023-08-21T00:10:17;96068.28;;;11.66;86.29
68141;BME280;54941;52.220;104.306;2023-08-21T00:12:44;96068.47;;;11.90;85.43
68141;BME280;54941;52.220;104.306;2023-08-21T00:15:10;96069.09;;;11.98;85.76
68141;BME280;54941;52.220;104.306;2023-08-21T00:17:36;96074.84;;;11.84;85.96
68141;BME280;54941;52.220;104.306;2023-08-21T00:20:03;96080.19;;;11.83;86.81
68141;BME280;54941;52.220;104.306;2023-08-21T00:22:30;96081.66;;;12.19;85.44
68141;BME280;54941;52.220;104.306;2023-08-21T00:24:57;96088.16;;;12.09;85.27
68141;BME280;54941;52.220;104.306;2023-08-21T00:27:24;96087.63;;;11.98;85.42
68141;BME280;54941;52.220;104.306;2023-08-21T00:29:51;96092.94;;;11.98;86.14
68141;BME280;54941;52.220;104.306;2023-08-21T00:32:17;96095.88;;;12.17;85.90
68141;BME280;54941;52.220;104.306;2023-08-21T00:34:43;96093.06;;;12.48;84.32
68141;BME280;54941;52.220;104.306;2023-08-21T00:37:10;96095.38;;;12.32;85.14
68141;BME280;54941;52.220;104.306;2023-08-21T00:39:36;96096.34;;;12.30;85.11
68141;BME280;54941;52.220;104.306;2023-08-21T00:42:02;96097.59;;;12.18;85.27
68141;BME280;54941;52.220;104.306;2023-08-21T00:44:30;96100.09;;;12.75;83.34
68141;BME280;54941;52.220;104.306;2023-08-21T00:46:56;96105.66;;;12.41;84.08
68141;BME280;54941;52.220;104.306;2023-08-21T00:49:23;96107.00;;;12.26;85.54
68141;BME280;54941;52.220;104.306;2023-08-21T00:51:50;96105.72;;;12.12;86.70
68141;BME280;54941;52.220;104.306;2023-08-21T00:54:17;96104.84;;;12.11;87.19
68141;BME280;54941;52.220;104.306;2023-08-21T00:56:45;96105.59;;;12.16;87.32
68141;BME280;54941;52.220;104.306;2023-08-21T00:59:11;96099.06;;;12.26;87.02
68141;BME280;54941;52.220;104.306;2023-08-21T01:01:40;96093.00;;;12.49;86.05
68141;BME280;54941;52.220;104.306;2023-08-21T01:04:07;96099.97;;;12.53;85.89
68141;BME280;54941;52.220;104.306;2023-08-21T01:06:33;96104.28;;;12.56;85.62
68141;BME280;54941;52.220;104.306;2023-08-21T01:09:03;96109.63;;;12.28;86.89
68141;BME280;54941;52.220;104.306;2023-08-21T01:11:38;96106.69;;;12.09;87.50
68141;BME280;54941;52.220;104.306;2023-08-21T01:14:25;96117.06;;;12.17;88.12
68141;BME280;54941;52.220;104.306;2023-08-21T01:16:57;96121.44;;;12.44;87.52
68141;BME280;54941;52.220;104.306;2023-08-21T01:19:30;96123.03;;;12.76;84.69
68141;BME280;54941;52.220;104.306;2023-08-21T01:21:58;96126.84;;;13.19;82.35
68141;BME280;54941;52.220;104.306;2023-08-21T01:24:25;96125.34;;;13.37;82.40
68141;BME280;54941;52.220;104.306;2023-08-21T01:26:52;96118.41;;;14.03;79.16
68141;BME280;54941;52.220;104.306;2023-08-21T01:29:18;96119.59;;;14.18;78.29
68141;BME280;54941;52.220;104.306;2023-08-21T01:31:49;96124.53;;;14.50;77.39
68141;BME280;54941;52.220;104.306;2023-08-21T01:34:17;96117.94;;;15.22;74.18
68141;BME280;54941;52.220;104.306;2023-08-21T01:36:43;96121.53;;;15.41;72.15
68141;BME280;54941;52.220;104.306;2023-08-21T01:39:10;96122.47;;;16.36;69.21
68141;BME280;54941;52.220;104.306;2023-08-21T01:41:39;96114.84;;;17.85;64.83
68141;BME280;54941;52.220;104.306;2023-08-21T01:44:26;96110.16;;;18.06;61.92
68141;BME280;54941;52.220;104.306;2023-08-21T01:46:52;96113.16;;;18.16;61.50
68141;BME280;54941;52.220;104.306;2023-08-21T01:49:19;96111.91;;;19.00;59.15
68141;BME280;54941;52.220;104.306;2023-08-21T01:51:52;96116.88;;;19.80;55.75
68141;BME280;54941;52.220;104.306;2023-08-21T01:54:18;96119.25;;;19.99;55.09
68141;BME280;54941;52.220;104.306;2023-08-21T01:56:46;96123.56;;;20.45;54.45
68141;BME280;54941;52.220;104.306;2023-08-21T01:59:12;96113.81;;;20.97;54.02
68141;BME280;54941;52.220;104.306;2023-08-21T02:01:38;96110.84;;;23.04;46.86
68141;BME280;54941;52.220;104.306;2023-08-21T02:04:04;96111.94;;;22.03;49.70
68141;BME280;54941;52.220;104.306;2023-08-21T02:06:31;96115.03;;;21.71;48.55
68141;BME280;54941;52.220;104.306;2023-08-21T02:08:57;96118.94;;;21.93;48.49
68141;BME280;54941;52.220;104.306;2023-08-21T02:11:23;96109.44;;;22.25;48.39
68141;BME280;54941;52.220;104.306;2023-08-21T02:13:51;96116.59;;;22.50;47.61
68141;BME280;54941;52.220;104.306;2023-08-21T02:16:17;96121.91;;;21.63;48.91
68141;BME280;54941;52.220;104.306;2023-08-21T02:18:43;96123.72;;;21.49;50.05
68141;BME280;54941;52.220;104.306;2023-08-21T02:21:10;96119.56;;;22.22;47.20
68141;BME280;54941;52.220;104.306;2023-08-21T02:23:36;96122.63;;;21.26;50.60
68141;BME280;54941;52.220;104.306;2023-08-21T02:26:02;96115.06;;;23.54;44.62
68141;BME280;54941;52.220;104.306;2023-08-21T02:28:29;96116.56;;;22.13;48.02
68141;BME280;54941;52.220;104.306;2023-08-21T02:30:56;96113.06;;;22.86;47.26
68141;BME280;54941;52.220;104.306;2023-08-21T02:33:23;96114.22;;;22.46;47.28
68141;BME280;54941;52.220;104.306;2023-08-21T02:35:49;96112.38;;;23.54;45.31
68141;BME280;54941;52.220;104.306;2023-08-21T02:38:15;96107.19;;;21.68;49.22
68141;BME280;54941;52.220;104.306;2023-08-21T02:40:41;96108.59;;;22.61;47.49
68141;BME280;54941;52.220;104.306;2023-08-21T02:43:08;96106.66;;;21.63;49.29
68141;BME280;54941;52.220;104.306;2023-08-21T02:45:34;96096.84;;;22.99;46.23
68141;BME280;54941;52.220;104.306;2023-08-21T02:48:02;96102.47;;;21.84;48.72
68141;BME280;54941;52.220;104.306;2023-08-21T02:50:28;96100.50;;;21.87;48.50
68141;BME280;54941;52.220;104.306;2023-08-21T02:52:55;96096.88;;;23.10;46.42
68141;BME280;54941;52.220;104.306;2023-08-21T02:55:21;96098.75;;;22.86;47.03
68141;BME280;54941;52.220;104.306;2023-08-21T02:57:47;96098.78;;;23.21;45.83
68141;BME280;54941;52.220;104.306;2023-08-21T03:00:14;96104.84;;;21.89;49.49
68141;BME280;54941;52.220;104.306;2023-08-21T03:02:40;96097.94;;;22.10;47.38
68141;BME280;54941;52.220;104.306;2023-08-21T03:05:08;96100.59;;;22.36;48.36
68141;BME280;54941;52.220;104.306;2023-08-21T03:07:34;96097.47;;;23.84;44.04
68141;BME280;54941;52.220;104.306;2023-08-21T03:10:00;96093.84;;;23.15;45.98
68141;BME280;54941;52.220;104.306;2023-08-21T03:12:27;96095.56;;;22.92;46.75
68141;BME280;54941;52.220;104.306;2023-08-21T03:14:53;96098.44;;;23.37;45.70
68141;BME280;54941;52.220;104.306;2023-08-21T03:17:19;96091.78;;;24.44;42.69
68141;BME280;54941;52.220;104.306;2023-08-21T03:19:46;96102.28;;;23.80;42.52
68141;BME280;54941;52.220;104.306;2023-08-21T03:22:13;96099.50;;;25.15;40.26
68141;BME280;54941;52.220;104.306;2023-08-21T03:24:40;96100.00;;;24.21;41.18
68141;BME280;54941;52.220;104.306;2023-08-21T03:27:06;96099.84;;;22.70;44.31
68141;BME280;54941;52.220;104.306;2023-08-21T03:29:32;96099.47;;;24.04;41.01
68141;BME280;54941;52.220;104.306;2023-08-21T03:31:58;96096.53;;;24.19;39.92
68141;BME280;54941;52.220;104.306;2023-08-21T03:34:25;96098.69;;;23.69;40.26
68141;BME280;54941;52.220;104.306;2023-08-21T03:36:51;96105.03;;;24.36;38.83
68141;BME280;54941;52.220;104.306;2023-08-21T03:39:19;96095.69;;;24.52;35.34
68141;BME280;54941;52.220;104.306;2023-08-21T03:41:45;96101.31;;;23.93;36.81
68141;BME280;54941;52.220;104.306;2023-08-21T03:44:12;96089.34;;;24.85;36.06
68141;BME280;54941;52.220;104.306;2023-08-21T03:46:38;96093.28;;;24.92;35.85
68141;BME280;54941;52.220;104.306;2023-08-21T03:49:05;96094.47;;;24.22;40.33
68141;BME280;54941;52.220;104.306;2023-08-21T03:51:31;96094.88;;;23.60;39.86
68141;BME280;54941;52.220;104.306;2023-08-21T03:53:57;96089.22;;;22.93;41.94
68141;BME280;54941;52.220;104.306;2023-08-21T03:56:25;96087.19;;;23.78;38.63
68141;BME280;54941;52.220;104.306;2023-08-21T03:58:51;96079.44;;;23.27;40.02
68141;BME280;54941;52.220;104.306;2023-08-21T04:01:18;96081.91;;;22.82;37.78
68141;BME280;54941;52.220;104.306;2023-08-21T04:03:44;96083.78;;;23.41;37.37
68141;BME280;54941;52.220;104.306;2023-08-21T04:06:10;96078.50;;;24.08;36.01
68141;BME280;54941;52.220;104.306;2023-08-21T04:08:37;96068.66;;;24.29;36.64
68141;BME280;54941;52.220;104.306;2023-08-21T04:11:03;96060.28;;;25.41;36.22
68141;BME280;54941;52.220;104.306;2023-08-21T04:13:31;96061.19;;;24.55;36.84
68141;BME280;54941;52.220;104.306;2023-08-21T04:15:58;96073.34;;;24.05;36.23
68141;BME280;54941;52.220;104.306;2023-08-21T04:18:24;96058.69;;;24.74;34.19
68141;BME280;54941;52.220;104.306;2023-08-21T04:20:50;96073.19;;;23.84;36.19
68141;BME280;54941;52.220;104.306;2023-08-21T04:23:17;96071.69;;;23.22;37.74
68141;BME280;54941;52.220;104.306;2023-08-21T04:25:43;96070.31;;;24.86;34.10
68141;BME280;54941;52.220;104.306;2023-08-21T04:28:10;96063.31;;;25.27;33.31
68141;BME280;54941;52.220;104.306;2023-08-21T04:30:40;96055.94;;;25.50;32.79
68141;BME280;54941;52.220;104.306;2023-08-21T04:33:06;96070.63;;;24.27;35.81
68141;BME280;54941;52.220;104.306;2023-08-21T04:35:37;96065.97;;;23.84;34.61
68141;BME280;54941;52.220;104.306;2023-08-21T04:38:03;96064.69;;;23.55;35.46
68141;BME280;54941;52.220;104.306;2023-08-21T04:40:29;96062.31;;;23.74;36.63
68141;BME280;54941;52.220;104.306;2023-08-21T04:42:56;96067.34;;;24.12;34.81
68141;BME280;54941;52.220;104.306;2023-08-21T04:45:22;96067.06;;;23.36;35.64
68141;BME280;54941;52.220;104.306;2023-08-21T04:47:50;96059.84;;;23.01;36.71
68141;BME280;54941;52.220;104.306;2023-08-21T04:50:16;96059.94;;;22.88;36.51
68141;BME280;54941;52.220;104.306;2023-08-21T04:52:42;96059.72;;;22.18;34.91
68141;BME280;54941;52.220;104.306;2023-08-21T04:55:09;96054.81;;;22.49;35.29
68141;BME280;54941;52.220;104.306;2023-08-21T04:57:35;96055.63;;;22.25;35.88
68141;BME280;54941;52.220;104.306;2023-08-21T05:00:01;96043.81;;;22.02;33.96
68141;BME280;54941;52.220;104.306;2023-08-21T05:02:33;96040.53;;;23.07;34.71
68141;BME280;54941;52.220;104.306;2023-08-21T05:05:02;96043.50;;;22.43;34.49
68141;BME280;54941;52.220;104.306;2023-08-21T05:07:31;96043.09;;;22.37;36.04
68141;BME280;54941;52.220;104.306;2023-08-21T05:09:59;96043.66;;;22.90;36.13
68141;BME280;54941;52.220;104.306;2023-08-21T05:12:25;96036.97;;;23.53;35.16
68141;BME280;54941;52.220;104.306;2023-08-21T05:14:51;96031.00;;;24.16;33.93
68141;BME280;54941;52.220;104.306;2023-08-21T05:17:18;96032.81;;;23.14;34.39
68141;BME280;54941;52.220;104.306;2023-08-21T05:19:44;96029.31;;;23.24;34.96
68141;BME280;54941;52.220;104.306;2023-08-21T05:22:12;96036.28;;;23.16;35.09
68141;BME280;54941;52.220;104.306;2023-08-21T05:24:38;96029.47;;;22.99;35.08
68141;BME280;54941;52.220;104.306;2023-08-21T05:27:05;96025.38;;;22.58;35.34
68141;BME280;54941;52.220;104.306;2023-08-21T05:29:31;96030.53;;;22.85;35.35
68141;BME280;54941;52.220;104.306;2023-08-21T05:31:57;96026.41;;;22.80;32.68
68141;BME280;54941;52.220;104.306;2023-08-21T05:34:23;96033.50;;;22.69;34.31
68141;BME280;54941;52.220;104.306;2023-08-21T05:36:50;96020.84;;;22.59;35.17
68141;BME280;54941;52.220;104.306;2023-08-21T05:39:17;96021.53;;;22.13;34.86
68141;BME280;54941;52.220;104.306;2023-08-21T05:41:44;96019.94;;;21.85;37.33
68141;BME280;54941;52.220;104.306;2023-08-21T05:44:10;96019.06;;;22.10;37.07
68141;BME280;54941;52.220;104.306;2023-08-21T05:46:36;96013.88;;;22.67;34.18
68141;BME280;54941;52.220;104.306;2023-08-21T05:49:02;96021.50;;;22.26;35.34
68141;BME280;54941;52.220;104.306;2023-08-21T05:51:29;96016.56;;;22.43;35.84
68141;BME280;54941;52.220;104.306;2023-08-21T05:53:55;96009.09;;;22.84;35.17
68141;BME280;54941;52.220;104.306;2023-08-21T05:56:23;96008.38;;;23.17;34.98
68141;BME280;54941;52.220;104.306;2023-08-21T05:58:49;96004.47;;;23.43;34.89
68141;BME280;54941;52.220;104.306;2023-08-21T06:01:16;96011.25;;;23.60;37.22
68141;BME280;54941;52.220;104.306;2023-08-21T06:03:43;96005.94;;;22.90;38.83
68141;BME280;54941;52.220;104.306;2023-08-21T06:06:09;96005.34;;;22.26;38.95
68141;BME280;54941;52.220;104.306;2023-08-21T06:08:36;96002.50;;;22.40;40.03
68141;BME280;54941;52.220;104.306;2023-08-21T06:11:02;96006.84;;;22.30;39.21
68141;BME280;54941;52.220;104.306;2023-08-21T06:13:30;96015.88;;;21.79;40.33
68141;BME280;54941;52.220;104.306;2023-08-21T06:15:57;96003.47;;;22.02;40.73
68141;BME280;54941;52.220;104.306;2023-08-21T06:18:23;96010.47;;;21.92;40.85
68141;BME280;54941;52.220;104.306;2023-08-21T06:20:49;96008.13;;;21.62;41.55
68141;BME280;54941;52.220;104.306;2023-08-21T06:23:16;96013.75;;;21.46;40.93
68141;BME280;54941;52.220;104.306;2023-08-21T06:25:42;96013.00;;;21.44;40.95
68141;BME280;54941;52.220;104.306;2023-08-21T06:28:08;96012.03;;;21.58;41.17
68141;BME280;54941;52.220;104.306;2023-08-21T06:30:36;96004.44;;;21.00;40.70
68141;BME280;54941;52.220;104.306;2023-08-21T06:33:03;96010.56;;;21.02;41.31
68141;BME280;54941;52.220;104.306;2023-08-21T06:35:29;95997.13;;;20.89;42.96
68141;BME280;54941;52.220;104.306;2023-08-21T06:37:55;95996.63;;;21.22;41.25
68141;BME280;54941;52.220;104.306;2023-08-21T06:40:22;95999.34;;;21.35;40.10
68141;BME280;54941;52.220;104.306;2023-08-21T06:42:48;95997.78;;;21.05;40.71
68141;BME280;54941;52.220;104.306;2023-08-21T06:45:14;95999.19;;;21.11;40.62
68141;BME280;54941;52.220;104.306;2023-08-21T06:47:42;95990.97;;;20.74;41.99
68141;BME280;54941;52.220;104.306;2023-08-21T06:50:10;95990.41;;;20.69;40.21
68141;BME280;54941;52.220;104.306;2023-08-21T06:52:36;95974.78;;;20.49;42.17
68141;BME280;54941;52.220;104.306;2023-08-21T06:55:03;95984.09;;;20.83;41.46
68141;BME280;54941;52.220;104.306;2023-08-21T06:57:30;95985.09;;;20.94;38.57
68141;BME280;54941;52.220;104.306;2023-08-21T06:59:56;95979.59;;;20.83;38.54
68141;BME280;54941;52.220;104.306;2023-08-21T07:02:23;95983.13;;;20.71;39.63
68141;BME280;54941;52.220;104.306;2023-08-21T07:04:51;95980.66;;;20.81;39.83
68141;BME280;54941;52.220;104.306;2023-08-21T07:07:17;95976.28;;;21.18;38.60
68141;BME280;54941;52.220;104.306;2023-08-21T07:09:43;95981.72;;;21.31;39.44
68141;BME280;54941;52.220;104.306;2023-08-21T07:12:10;95983.13;;;21.36;38.60
68141;BME280;54941;52.220;104.306;2023-08-21T07:14:36;95984.47;;;21.16;39.97
68141;BME280;54941;52.220;104.306;2023-08-21T07:17:02;95989.22;;;21.51;38.95
68141;BME280;54941;52.220;104.306;2023-08-21T07:19:29;95973.13;;;21.88;38.58
68141;BME280;54941;52.220;104.306;2023-08-21T07:21:56;95982.59;;;22.06;36.51
68141;BME280;54941;52.220;104.306;2023-08-21T07:24:22;95985.53;;;21.90;37.34
68141;BME280;54941;52.220;104.306;2023-08-21T07:26:49;95981.69;;;22.18;37.15
68141;BME280;54941;52.220;104.306;2023-08-21T07:29:15;95974.94;;;22.12;37.99
68141;BME280;54941;52.220;104.306;2023-08-21T07:31:41;95972.81;;;22.29;39.16
68141;BME280;54941;52.220;104.306;2023-08-21T07:34:07;95976.19;;;22.20;40.46
68141;BME280;54941;52.220;104.306;2023-08-21T07:36:34;95982.78;;;21.53;42.26
68141;BME280;54941;52.220;104.306;2023-08-21T07:39:02;95970.66;;;21.35;40.37
68141;BME280;54941;52.220;104.306;2023-08-21T07:41:28;95976.28;;;21.05;41.02
68141;BME280;54941;52.220;104.306;2023-08-21T07:43:54;95975.31;;;20.81;41.62
68141;BME280;54941;52.220;104.306;2023-08-21T07:46:21;95976.97;;;21.09;41.99
68141;BME280;54941;52.220;104.306;2023-08-21T07:48:47;95973.31;;;21.10;41.36
68141;BME280;54941;52.220;104.306;2023-08-21T07:51:14;95971.84;;;21.31;39.54
68141;BME280;54941;52.220;104.306;2023-08-21T07:53:40;95970.28;;;21.14;39.63
68141;BME280;54941;52.220;104.306;2023-08-21T07:56:08;95967.75;;;21.38;39.21
68141;BME280;54941;52.220;104.306;2023-08-21T07:58:34;95964.72;;;21.30;40.00
68141;BME280;54941;52.220;104.306;2023-08-21T08:01:00;95966.00;;;20.99;40.71
68141;BME280;54941;52.220;104.306;2023-08-21T08:03:27;95969.91;;;20.68;40.60
68141;BME280;54941;52.220;104.306;2023-08-21T08:05:53;95976.00;;;20.57;41.24
68141;BME280;54941;52.220;104.306;2023-08-21T08:08:19;95968.41;;;20.64;41.78
68141;BME280;54941;52.220;104.306;2023-08-21T08:10:46;95972.81;;;20.65;40.60
68141;BME280;54941;52.220;104.306;2023-08-21T08:13:13;95973.47;;;20.42;40.92
68141;BME280;54941;52.220;104.306;2023-08-21T08:15:40;95968.28;;;20.53;41.29
68141;BME280;54941;52.220;104.306;2023-08-21T08:18:11;95972.88;;;20.36;41.47
68141;BME280;54941;52.220;104.306;2023-08-21T08:20:37;95980.59;;;20.43;40.91
68141;BME280;54941;52.220;104.306;2023-08-21T08:23:04;95975.28;;;20.41;40.77
68141;BME280;54941;52.220;104.306;2023-08-21T08:25:30;95970.41;;;20.33;40.87
68141;BME280;54941;52.220;104.306;2023-08-21T08:27:56;95976.34;;;20.38;40.01
68141;BME280;54941;52.220;104.306;2023-08-21T08:30:24;95975.25;;;20.28;41.90
68141;BME280;54941;52.220;104.306;2023-08-21T08:32:51;95972.66;;;20.54;40.83
68141;BME280;54941;52.220;104.306;2023-08-21T08:35:17;95977.69;;;20.46;40.67
68141;BME280;54941;52.220;104.306;2023-08-21T08:37:43;95968.91;;;20.56;40.84
68141;BME280;54941;52.220;104.306;2023-08-21T08:40:11;95968.47;;;21.02;39.99
68141;BME280;54941;52.220;104.306;2023-08-21T08:42:38;95977.34;;;20.90;40.22
68141;BME280;54941;52.220;104.306;2023-08-21T08:45:06;95974.28;;;20.56;40.54
68141;BME280;54941;52.220;104.306;2023-08-21T08:47:37;95976.25;;;20.67;40.40
68141;BME280;54941;52.220;104.306;2023-08-21T08:50:06;95972.03;;;20.50;40.75
68141;BME280;54941;52.220;104.306;2023-08-21T08:52:34;95976.22;;;20.27;41.74
68141;BME280;54941;52.220;104.306;2023-08-21T08:55:01;95979.63;;;20.02;41.91
68141;BME280;54941;52.220;104.306;2023-08-21T08:57:27;95975.25;;;20.55;40.01
68141;BME280;54941;52.220;104.306;2023-08-21T08:59:54;95975.13;;;20.57;41.72
68141;BME280;54941;52.220;104.306;2023-08-21T09:02:20;95974.31;;;20.69;42.09
68141;BME280;54941;52.220;104.306;2023-08-21T09:04:48;95978.06;;;20.66;41.41
68141;BME280;54941;52.220;104.306;2023-08-21T09:07:17;95973.56;;;20.40;41.78
68141;BME280;54941;52.220;104.306;2023-08-21T09:09:46;95976.97;;;20.29;43.89
68141;BME280;54941;52.220;104.306;2023-08-21T09:12:13;95976.59;;;20.21;43.87
68141;BME280;54941;52.220;104.306;2023-08-21T09:14:40;95972.47;;;20.30;43.25
68141;BME280;54941;52.220;104.306;2023-08-21T09:17:07;95973.09;;;20.33;43.24
68141;BME280;54941;52.220;104.306;2023-08-21T09:19:34;95970.72;;;20.43;42.24
68141;BME280;54941;52.220;104.306;2023-08-21T09:22:08;95972.34;;;20.58;42.01
68141;BME280;54941;52.220;104.306;2023-08-21T09:24:34;95969.56;;;20.60;43.64
68141;BME280;54941;52.220;104.306;2023-08-21T09:27:00;95970.41;;;20.60;44.26
68141;BME280;54941;52.220;104.306;2023-08-21T09:29:27;95970.78;;;20.42;45.34
68141;BME280;54941;52.220;104.306;2023-08-21T09:32:03;95969.66;;;20.31;46.12
68141;BME280;54941;52.220;104.306;2023-08-21T09:34:34;95969.88;;;20.28;45.92
68141;BME280;54941;52.220;104.306;2023-08-21T09:37:00;95972.53;;;20.43;43.81
68141;BME280;54941;52.220;104.306;2023-08-21T09:39:33;95966.50;;;20.39;45.11
68141;BME280;54941;52.220;104.306;2023-08-21T09:41:59;95967.69;;;20.21;45.46
68141;BME280;54941;52.220;104.306;2023-08-21T09:44:25;95967.94;;;20.30;45.52
68141;BME280;54941;52.220;104.306;2023-08-21T09:46:52;95969.91;;;20.41;43.39
68141;BME280;54941;52.220;104.306;2023-08-21T09:49:19;95968.69;;;20.32;43.43
68141;BME280;54941;52.220;104.306;2023-08-21T09:51:46;95975.50;;;20.38;43.79
68141;BME280;54941;52.220;104.306;2023-08-21T09:54:33;95971.88;;;20.25;43.41
68141;BME280;54941;52.220;104.306;2023-08-21T09:57:01;95973.97;;;20.34;43.57
68141;BME280;54941;52.220;104.306;2023-08-21T09:59:28;95972.16;;;20.07;43.94
68141;BME280;54941;52.220;104.306;2023-08-21T10:01:55;95965.44;;;20.15;42.87
68141;BME280;54941;52.220;104.306;2023-08-21T10:04:23;95967.47;;;20.24;42.77
68141;BME280;54941;52.220;104.306;2023-08-21T10:06:52;95963.28;;;20.20;42.52
68141;BME280;54941;52.220;104.306;2023-08-21T10:09:20;95958.19;;;20.29;42.57
68141;BME280;54941;52.220;104.306;2023-08-21T10:11:49;95965.38;;;20.29;41.77
68141;BME280;54941;52.220;104.306;2023-08-21T10:14:16;95960.63;;;20.20;42.38
68141;BME280;54941;52.220;104.306;2023-08-21T10:16:42;95961.41;;;20.07;43.21
68141;BME280;54941;52.220;104.306;2023-08-21T10:19:14;95957.50;;;19.99;42.77
68141;BME280;54941;52.220;104.306;2023-08-21T10:21:40;95958.88;;;19.92;43.25
68141;BME280;54941;52.220;104.306;2023-08-21T10:24:07;95962.06;;;20.11;43.41
68141;BME280;54941;52.220;104.306;2023-08-21T10:26:38;95954.13;;;20.09;42.85
68141;BME280;54941;52.220;104.306;2023-08-21T10:29:06;95955.84;;;19.84;43.45
68141;BME280;54941;52.220;104.306;2023-08-21T10:31:34;95952.56;;;20.20;43.08
68141;BME280;54941;52.220;104.306;2023-08-21T10:34:03;95942.50;;;19.96;43.56
68141;BME280;54941;52.220;104.306;2023-08-21T10:39:32;95955.69;;;19.99;44.03
68141;BME280;54941;52.220;104.306;2023-08-21T10:42:02;95957.13;;;20.05;43.31
68141;BME280;54941;52.220;104.306;2023-08-21T10:44:48;95954.88;;;19.85;41.70
68141;BME280;54941;52.220;104.306;2023-08-21T10:47:16;95948.75;;;19.83;42.06
68141;BME280;54941;52.220;104.306;2023-08-21T10:49:44;95956.03;;;19.80;40.89
68141;BME280;54941;52.220;104.306;2023-08-21T10:52:11;95960.84;;;19.61;41.40
68141;BME280;54941;52.220;104.306;2023-08-21T10:54:47;95969.75;;;19.62;41.57
68141;BME280;54941;52.220;104.306;2023-08-21T10:57:15;95965.78;;;19.53;42.14
68141;BME280;54941;52.220;104.306;2023-08-21T10:59:54;95976.91;;;19.47;42.88
68141;BME280;54941;52.220;104.306;2023-08-21T11:02:20;95973.84;;;19.53;43.51
68141;BME280;54941;52.220;104.306;2023-08-21T11:04:47;95980.34;;;19.49;43.54
68141;BME280;54941;52.220;104.306;2023-08-21T11:07:14;95984.19;;;19.45;43.35
68141;BME280;54941;52.220;104.306;2023-08-21T11:09:40;95988.00;;;19.41;44.15
68141;BME280;54941;52.220;104.306;2023-08-21T11:12:08;95986.69;;;19.48;43.53
68141;BME280;54941;52.220;104.306;2023-08-21T11:14:35;95981.34;;;19.62;43.40
68141;BME280;54941;52.220;104.306;2023-08-21T11:17:03;95989.47;;;19.46;43.22
68141;BME280;54941;52.220;104.306;2023-08-21T11:19:31;95983.72;;;19.38;44.42
68141;BME280;54941;52.220;104.306;2023-08-21T11:21:57;95996.19;;;18.95;50.10
68141;BME280;54941;52.220;104.306;2023-08-21T11:24:30;95995.94;;;18.70;53.51
68141;BME280;54941;52.220;104.306;2023-08-21T11:26:56;95990.06;;;18.33;53.16
68141;BME280;54941;52.220;104.306;2023-08-21T11:29:22;95997.88;;;17.74;62.36
68141;BME280;54941;52.220;104.306;2023-08-21T11:31:49;96000.91;;;17.51;63.93
68141;BME280;54941;52.220;104.306;2023-08-21T11:34:20;96000.09;;;17.33;67.04
68141;BME280;54941;52.220;104.306;2023-08-21T11:36:47;96016.75;;;17.21;68.64
68141;BME280;54941;52.220;104.306;2023-08-21T11:39:13;96006.91;;;17.88;55.95
68141;BME280;54941;52.220;104.306;2023-08-21T11:41:55;96004.88;;;18.38;52.69
68141;BME280;54941;52.220;104.306;2023-08-21T11:44:22;96012.03;;;18.38;53.14
68141;BME280;54941;52.220;104.306;2023-08-21T11:46:51;96011.22;;;18.52;52.94
68141;BME280;54941;52.220;104.306;2023-08-21T11:49:19;96010.69;;;18.61;53.33
68141;BME280;54941;52.220;104.306;2023-08-21T11:51:46;96011.41;;;18.49;53.90
68141;BME280;54941;52.220;104.306;2023-08-21T11:54:12;96017.38;;;18.38;54.71
68141;BME280;54941;52.220;104.306;2023-08-21T11:56:39;96018.81;;;18.29;54.68
68141;BME280;54941;52.220;104.306;2023-08-21T11:59:05;96017.22;;;18.25;55.46
68141;BME280;54941;52.220;104.306;2023-08-21T12:01:33;96025.69;;;18.02;56.58
68141;BME280;54941;52.220;104.306;2023-08-21T12:03:59;96027.78;;;17.97;56.01
68141;BME280;54941;52.220;104.306;2023-08-21T12:06:27;96029.25;;;17.87;56.65
68141;BME280;54941;52.220;104.306;2023-08-21T12:08:53;96022.97;;;17.55;57.41
68141;BME280;54941;52.220;104.306;2023-08-21T12:11:20;96023.38;;;17.47;57.03
68141;BME280;54941;52.220;104.306;2023-08-21T12:13:47;96028.13;;;16.74;65.50
68141;BME280;54941;52.220;104.306;2023-08-21T12:16:13;96030.69;;;16.58;65.11
68141;BME280;54941;52.220;104.306;2023-08-21T12:18:39;96030.81;;;16.02;69.74
68141;BME280;54941;52.220;104.306;2023-08-21T12:21:06;96032.88;;;15.58;71.49
68141;BME280;54941;52.220;104.306;2023-08-21T12:23:33;96037.28;;;15.40;73.41
68141;BME280;54941;52.220;104.306;2023-08-21T12:26:00;96035.78;;;15.14;74.04
68141;BME280;54941;52.220;104.306;2023-08-21T12:28:26;96040.59;;;14.85;75.85
68141;BME280;54941;52.220;104.306;2023-08-21T12:30:52;96036.66;;;14.53;77.39
68141;BME280;54941;52.220;104.306;2023-08-21T12:33:18;96044.69;;;14.30;78.78
68141;BME280;54941;52.220;104.306;2023-08-21T12:35:45;96039.59;;;14.25;79.48
68141;BME280;54941;52.220;104.306;2023-08-21T12:38:12;96044.34;;;14.17;80.00
68141;BME280;54941;52.220;104.306;2023-08-21T12:40:39;96041.97;;;14.10;80.70
68141;BME280;54941;52.220;104.306;2023-08-21T12:43:06;96052.09;;;14.00;81.17